UAL888 KSFO-ZBAA
Flight info
| Callsign | UAL888 |
|---|---|
| Flight time | N/A |
| Altitude | 34000 |
| Route | GNNRR3 AMAKR DCT REDWD DCT 42N130W 48N140W 51N150W/N0492F360 53N160W DCT DUT DCT AMOND DCT HEDMI/N0480F380 M523 ISMAV/N0490F400 DCT NODAN R217 ASTER Y514 SDE Y512 GTC Y142 SAMON Y14 SUGNO Y16 SAPRA Y685 SEL Y697 AGAVO/K0898S1220 A591 IKEKA W4 HCH W200 DOVIV W55 DUMAP DUMAP2G |
| Aircraft | B772/H-SDE2E3FGHIJ5LORVWXY/LB1D1 |
Departure
| Time | 2026-05-04 13:05 |
|---|---|
| Airport | San Francisco International Airport (KSFO) |
Arrival
| Time | N/A |
|---|---|
| Airport | Beijing Capital International Airport (ZBAA) |
| Time | Latitude | Longitude | Altitude | Speed | Heading |
|---|---|---|---|---|---|
| 2026-05-04 12:58 | 37.61456 | -122.38102 | 41 ft | 8 kts | 27° |
| 2026-05-04 12:59 | 37.61508 | -122.38069 | 41 ft | 8 kts | 27° |
| 2026-05-04 12:59 | 37.61554 | -122.38039 | 41 ft | 7 kts | 28° |
| 2026-05-04 12:59 | 37.61607 | -122.38003 | 41 ft | 10 kts | 29° |
| 2026-05-04 12:59 | 37.61666 | -122.37946 | 39 ft | 11 kts | 64° |
| 2026-05-04 13:00 | 37.61672 | -122.37847 | 37 ft | 12 kts | 97° |
| 2026-05-04 13:00 | 37.61662 | -122.37742 | 35 ft | 12 kts | 99° |
| 2026-05-04 13:00 | 37.61649 | -122.37633 | 32 ft | 13 kts | 98° |
| 2026-05-04 13:00 | 37.61636 | -122.37507 | 27 ft | 15 kts | 94° |
| 2026-05-04 13:01 | 37.61627 | -122.37372 | 25 ft | 16 kts | 96° |
| 2026-05-04 13:01 | 37.61604 | -122.37242 | 23 ft | 15 kts | 112° |
| 2026-05-04 13:01 | 37.61559 | -122.37129 | 21 ft | 15 kts | 118° |
| 2026-05-04 13:01 | 37.61513 | -122.37021 | 21 ft | 13 kts | 118° |
| 2026-05-04 13:02 | 37.61374 | -122.36792 | 21 ft | 12 kts | 125° |
| 2026-05-04 13:02 | 37.61196 | -122.36375 | 18 ft | 11 kts | 117° |
| 2026-05-04 13:02 | 37.61063 | -122.36057 | 17 ft | 10 kts | 113° |
| 2026-05-04 13:02 | 37.61054 | -122.35973 | 17 ft | 10 kts | 77° |
| 2026-05-04 13:03 | 37.61102 | -122.35907 | 17 ft | 10 kts | 30° |
| 2026-05-04 13:03 | 37.61163 | -122.35889 | 17 ft | 9 kts | 355° |
| 2026-05-04 13:03 | 37.61208 | -122.35927 | 17 ft | 7 kts | 307° |
| 2026-05-04 13:03 | 37.61212 | -122.35935 | 17 ft | 1 kts | 301° |
| 2026-05-04 13:04 | 37.61274 | -122.36080 | 17 ft | 44 kts | 297° |
| 2026-05-04 13:04 | 37.61504 | -122.36625 | 20 ft | 96 kts | 298° |
| 2026-05-04 13:04 | 37.61889 | -122.37547 | 31 ft | 142 kts | 298° |
| 2026-05-04 13:04 | 37.62407 | -122.38808 | 39 ft | 182 kts | 297° |
| 2026-05-04 13:05 | 37.62962 | -122.40232 | 562 ft | 180 kts | 295° |
| 2026-05-04 13:05 | 37.63554 | -122.41619 | 1093 ft | 182 kts | 299° |
| 2026-05-04 13:05 | 37.64186 | -122.43022 | 1251 ft | 191 kts | 298° |
| 2026-05-04 13:05 | 37.64868 | -122.44539 | 1262 ft | 208 kts | 299° |
| 2026-05-04 13:06 | 37.65613 | -122.46196 | 1352 ft | 225 kts | 299° |
| 2026-05-04 13:06 | 37.66410 | -122.47972 | 1476 ft | 241 kts | 299° |
| 2026-05-04 13:06 | 37.67256 | -122.49849 | 1837 ft | 248 kts | 300° |
| 2026-05-04 13:06 | 37.68245 | -122.51670 | 2235 ft | 254 kts | 306° |
| 2026-05-04 13:07 | 37.69305 | -122.53456 | 2714 ft | 255 kts | 306° |
| 2026-05-04 13:07 | 37.70367 | -122.55246 | 3218 ft | 256 kts | 306° |
| 2026-05-04 13:07 | 37.71430 | -122.57046 | 3636 ft | 260 kts | 306° |
| 2026-05-04 13:07 | 37.72523 | -122.58903 | 4009 ft | 265 kts | 306° |
| 2026-05-04 13:08 | 37.73626 | -122.60778 | 4406 ft | 269 kts | 306° |
| 2026-05-04 13:08 | 37.74742 | -122.62674 | 4827 ft | 272 kts | 307° |
| 2026-05-04 13:08 | 37.75870 | -122.64592 | 5240 ft | 275 kts | 307° |
| 2026-05-04 13:08 | 37.77013 | -122.66538 | 5683 ft | 276 kts | 307° |
| 2026-05-04 13:09 | 37.78160 | -122.68492 | 6064 ft | 280 kts | 307° |
| 2026-05-04 13:09 | 37.79318 | -122.70465 | 6472 ft | 282 kts | 307° |
| 2026-05-04 13:09 | 37.80495 | -122.72472 | 6889 ft | 284 kts | 307° |
| 2026-05-04 13:09 | 37.81673 | -122.74480 | 7278 ft | 287 kts | 308° |
| 2026-05-04 13:10 | 37.83086 | -122.76228 | 7656 ft | 286 kts | 325° |
| 2026-05-04 13:10 | 37.84726 | -122.77646 | 8070 ft | 287 kts | 329° |
| 2026-05-04 13:10 | 37.86404 | -122.79025 | 8456 ft | 290 kts | 329° |
| 2026-05-04 13:10 | 37.88093 | -122.80416 | 8836 ft | 292 kts | 328° |
| 2026-05-04 13:11 | 37.89793 | -122.81824 | 9222 ft | 294 kts | 329° |
| 2026-05-04 13:11 | 37.91517 | -122.83254 | 9616 ft | 296 kts | 329° |
| 2026-05-04 13:11 | 37.93240 | -122.84685 | 10003 ft | 297 kts | 329° |
| 2026-05-04 13:11 | 37.94998 | -122.86144 | 10132 ft | 310 kts | 329° |
| 2026-05-04 13:12 | 37.96845 | -122.87679 | 10159 ft | 326 kts | 329° |
| 2026-05-04 13:12 | 37.98783 | -122.89291 | 10199 ft | 341 kts | 329° |
| 2026-05-04 13:12 | 38.00809 | -122.90978 | 10243 ft | 356 kts | 329° |
| 2026-05-04 13:12 | 38.02913 | -122.92730 | 10312 ft | 370 kts | 329° |
| 2026-05-04 13:13 | 38.05112 | -122.94564 | 10515 ft | 380 kts | 329° |
| 2026-05-04 13:13 | 38.07317 | -122.96405 | 10940 ft | 382 kts | 329° |
| 2026-05-04 13:13 | 38.09536 | -122.98259 | 11415 ft | 383 kts | 329° |
| 2026-05-04 13:13 | 38.11757 | -123.00116 | 11828 ft | 385 kts | 329° |
| 2026-05-04 13:14 | 38.13995 | -123.01988 | 12245 ft | 388 kts | 329° |
| 2026-05-04 13:14 | 38.16247 | -123.03873 | 12664 ft | 389 kts | 329° |
| 2026-05-04 13:14 | 38.18507 | -123.05766 | 13058 ft | 392 kts | 329° |
| 2026-05-04 13:14 | 38.20801 | -123.07689 | 13451 ft | 394 kts | 329° |
| 2026-05-04 13:15 | 38.23086 | -123.09606 | 13845 ft | 396 kts | 329° |
| 2026-05-04 13:15 | 38.25411 | -123.11558 | 14226 ft | 398 kts | 329° |
| 2026-05-04 13:15 | 38.27727 | -123.13503 | 14611 ft | 400 kts | 329° |
| 2026-05-04 13:15 | 38.30044 | -123.15451 | 14999 ft | 401 kts | 329° |
| 2026-05-04 13:16 | 38.32372 | -123.17411 | 15367 ft | 404 kts | 329° |
| 2026-05-04 13:16 | 38.34712 | -123.19381 | 15714 ft | 406 kts | 329° |
| 2026-05-04 13:16 | 38.37065 | -123.21364 | 16075 ft | 408 kts | 329° |
| 2026-05-04 13:16 | 38.39441 | -123.23368 | 16418 ft | 410 kts | 329° |
| 2026-05-04 13:17 | 38.41815 | -123.25372 | 16748 ft | 412 kts | 329° |
| 2026-05-04 13:17 | 38.44203 | -123.27389 | 17067 ft | 414 kts | 329° |
| 2026-05-04 13:17 | 38.46600 | -123.29416 | 17383 ft | 416 kts | 329° |
| 2026-05-04 13:17 | 38.49006 | -123.31452 | 17686 ft | 418 kts | 330° |
| 2026-05-04 13:18 | 38.51428 | -123.33504 | 17987 ft | 420 kts | 330° |
| 2026-05-04 13:18 | 38.53858 | -123.35563 | 18281 ft | 422 kts | 330° |
| 2026-05-04 13:18 | 38.56313 | -123.37646 | 18596 ft | 423 kts | 330° |
| 2026-05-04 13:18 | 38.58759 | -123.39723 | 18898 ft | 424 kts | 330° |
| 2026-05-04 13:19 | 38.61215 | -123.41809 | 19182 ft | 426 kts | 330° |
| 2026-05-04 13:19 | 38.62853 | -123.43202 | 19345 ft | 428 kts | 330° |
| 2026-05-04 13:19 | 38.66159 | -123.46015 | 19712 ft | 430 kts | 330° |
| 2026-05-04 13:19 | 38.68644 | -123.48132 | 19951 ft | 432 kts | 331° |
| 2026-05-04 13:20 | 38.71139 | -123.50259 | 20211 ft | 433 kts | 331° |
| 2026-05-04 13:20 | 38.73661 | -123.52412 | 20480 ft | 435 kts | 331° |
| 2026-05-04 13:20 | 38.76171 | -123.54555 | 20731 ft | 436 kts | 331° |
| 2026-05-04 13:20 | 38.78692 | -123.56710 | 20972 ft | 438 kts | 331° |
| 2026-05-04 13:21 | 38.81218 | -123.58870 | 21223 ft | 439 kts | 331° |
| 2026-05-04 13:21 | 38.83752 | -123.61040 | 21454 ft | 441 kts | 331° |
| 2026-05-04 13:21 | 38.86296 | -123.63220 | 21659 ft | 443 kts | 332° |
| 2026-05-04 13:21 | 38.88851 | -123.65412 | 21905 ft | 444 kts | 331° |
| 2026-05-04 13:22 | 38.91433 | -123.67629 | 22092 ft | 446 kts | 331° |
| 2026-05-04 13:22 | 38.94012 | -123.69844 | 22286 ft | 448 kts | 331° |
| 2026-05-04 13:22 | 38.96563 | -123.72138 | 22517 ft | 452 kts | 326° |
| 2026-05-04 13:22 | 38.98879 | -123.74875 | 22774 ft | 457 kts | 317° |
| 2026-05-04 13:23 | 39.00871 | -123.78064 | 22985 ft | 464 kts | 308° |
| 2026-05-04 13:23 | 39.02506 | -123.81659 | 23068 ft | 472 kts | 301° |
| 2026-05-04 13:23 | 39.03963 | -123.85432 | 23241 ft | 475 kts | 300° |
| 2026-05-04 13:23 | 39.05417 | -123.89259 | 23455 ft | 476 kts | 300° |
| 2026-05-04 13:24 | 39.06860 | -123.93069 | 23661 ft | 477 kts | 300° |
| 2026-05-04 13:24 | 39.08307 | -123.96894 | 23868 ft | 478 kts | 300° |
| 2026-05-04 13:24 | 39.09755 | -124.00727 | 24020 ft | 479 kts | 300° |
| 2026-05-04 13:25 | 39.12662 | -124.08438 | 24434 ft | 480 kts | 300° |
| 2026-05-04 13:25 | 39.14113 | -124.12292 | 24636 ft | 481 kts | 300° |
| 2026-05-04 13:25 | 39.15577 | -124.16188 | 24792 ft | 483 kts | 300° |
| 2026-05-04 13:25 | 39.17034 | -124.20069 | 24951 ft | 484 kts | 300° |
| 2026-05-04 13:26 | 39.18494 | -124.23963 | 25091 ft | 486 kts | 300° |
| 2026-05-04 13:26 | 39.19957 | -124.27872 | 25267 ft | 487 kts | 301° |
| 2026-05-04 13:26 | 39.21424 | -124.31796 | 25453 ft | 488 kts | 301° |
| 2026-05-04 13:26 | 39.22891 | -124.35724 | 25650 ft | 488 kts | 301° |
| 2026-05-04 13:27 | 39.24353 | -124.39647 | 25889 ft | 488 kts | 301° |
| 2026-05-04 13:27 | 39.25826 | -124.43602 | 26088 ft | 488 kts | 301° |
| 2026-05-04 13:27 | 39.27290 | -124.47539 | 26228 ft | 490 kts | 301° |
| 2026-05-04 13:27 | 39.28757 | -124.51487 | 26366 ft | 491 kts | 301° |
| 2026-05-04 13:28 | 39.30224 | -124.55442 | 26536 ft | 492 kts | 301° |
| 2026-05-04 13:28 | 39.31695 | -124.59412 | 26667 ft | 494 kts | 301° |
| 2026-05-04 13:28 | 39.33169 | -124.63397 | 26850 ft | 494 kts | 301° |
| 2026-05-04 13:28 | 39.34643 | -124.67387 | 26977 ft | 496 kts | 300° |
| 2026-05-04 13:29 | 39.36132 | -124.71421 | 27065 ft | 498 kts | 300° |
| 2026-05-04 13:29 | 39.37615 | -124.75447 | 27216 ft | 499 kts | 300° |
| 2026-05-04 13:29 | 39.39097 | -124.79478 | 27361 ft | 499 kts | 300° |
| 2026-05-04 13:29 | 39.40580 | -124.83512 | 27514 ft | 500 kts | 300° |
| 2026-05-04 13:30 | 39.42063 | -124.87554 | 27697 ft | 500 kts | 301° |
| 2026-05-04 13:30 | 39.43546 | -124.91603 | 27845 ft | 501 kts | 300° |
| 2026-05-04 13:30 | 39.45028 | -124.95652 | 27976 ft | 502 kts | 300° |
| 2026-05-04 13:30 | 39.46524 | -124.99748 | 28125 ft | 502 kts | 300° |
| 2026-05-04 13:31 | 39.48010 | -125.03818 | 28242 ft | 504 kts | 300° |
| 2026-05-04 13:31 | 39.49499 | -125.07904 | 28318 ft | 506 kts | 300° |
| 2026-05-04 13:31 | 39.50993 | -125.12009 | 28432 ft | 507 kts | 300° |
| 2026-05-04 13:31 | 39.52482 | -125.16109 | 28652 ft | 506 kts | 300° |
| 2026-05-04 13:32 | 39.53970 | -125.20209 | 28822 ft | 506 kts | 300° |
| 2026-05-04 13:32 | 39.55461 | -125.24323 | 28909 ft | 508 kts | 300° |
| 2026-05-04 13:32 | 39.56962 | -125.28472 | 29019 ft | 509 kts | 300° |
| 2026-05-04 13:32 | 39.58458 | -125.32611 | 29157 ft | 509 kts | 300° |
| 2026-05-04 13:33 | 39.59950 | -125.36746 | 29312 ft | 509 kts | 300° |
| 2026-05-04 13:33 | 39.61442 | -125.40888 | 29468 ft | 509 kts | 300° |
| 2026-05-04 13:33 | 39.62932 | -125.45030 | 29619 ft | 509 kts | 300° |
| 2026-05-04 13:33 | 39.64424 | -125.49180 | 29709 ft | 511 kts | 300° |
| 2026-05-04 13:34 | 39.67419 | -125.57534 | 29937 ft | 512 kts | 300° |
| 2026-05-04 13:34 | 39.68909 | -125.61700 | 30134 ft | 511 kts | 300° |
| 2026-05-04 13:34 | 39.70392 | -125.65854 | 30337 ft | 509 kts | 300° |
| 2026-05-04 13:35 | 39.71872 | -125.70000 | 30442 ft | 509 kts | 300° |
| 2026-05-04 13:35 | 39.74831 | -125.78313 | 30611 ft | 510 kts | 300° |
| 2026-05-04 13:35 | 39.76309 | -125.82475 | 30735 ft | 510 kts | 300° |
| 2026-05-04 13:36 | 39.77797 | -125.86668 | 30847 ft | 509 kts | 299° |
| 2026-05-04 13:36 | 39.79270 | -125.90826 | 30948 ft | 509 kts | 299° |
| 2026-05-04 13:36 | 39.80740 | -125.94984 | 31013 ft | 510 kts | 300° |
| 2026-05-04 13:36 | 39.82211 | -125.99149 | 31137 ft | 509 kts | 300° |
| 2026-05-04 13:37 | 39.83675 | -126.03300 | 31295 ft | 507 kts | 299° |
| 2026-05-04 13:37 | 39.86594 | -126.11595 | 31453 ft | 507 kts | 300° |
| 2026-05-04 13:38 | 39.89522 | -126.19941 | 31643 ft | 506 kts | 299° |
| 2026-05-04 13:38 | 39.90970 | -126.24076 | 31791 ft | 504 kts | 300° |
| 2026-05-04 13:38 | 39.92420 | -126.28223 | 31886 ft | 504 kts | 299° |